Big Bear Station Historical Data
Daily Summary for February 20, 2017 Units:  English    Metric   Both
« Previous Day
Next Day »
Daily Weekly Monthly Yearly Custom
  High: Low: Average:
Temperature: 48.7 °F 32.4 °F 40.6 °F
Dew Point: 42.6 °F 23.8 °F 34.8 °F
Humidity: 99 % 50 % 82 %
Wind Speed: 8.9 mph 0.0 mph 2.3 mph
Wind Gust: -999.0 mph - -
Wind:- - WSW
Pressure: 30.33 in 30.13 in -
Precipitation: 0.42 in    
Historical Graphs
 
 
Tabular Data for February 20, 2017
Time Temperature Dew Point Pressure Wind Wind Speed Wind Gust Humidity Rainfall Rate (Hourly)
00:12 35.1 °F 34.8 °F 30.14 in NW 1.1 mph -999.0 mph 99 % 0 in
00:27 35.1 °F 34.8 °F 30.14 in Calm   -999.0 mph 99 % 0 in
00:43 35.1 °F 34.8 °F 30.14 in West 2.2 mph -999.0 mph 99 % 0 in
00:58 34.7 °F 34.4 °F 30.14 in North 1.1 mph -999.0 mph 99 % 0 in
01:13 34.5 °F 34.2 °F 30.14 in SE 3.2 mph -999.0 mph 99 % 0 in
01:28 34.0 °F 33.7 °F 30.13 in NW 1.7 mph -999.0 mph 99 % 0 in
01:43 34.3 °F 34.0 °F 30.14 in NNW 2.2 mph -999.0 mph 99 % 0 in
01:59 34.5 °F 34.2 °F 30.13 in SW 2.2 mph -999.0 mph 99 % 0 in
02:14 35.1 °F 34.8 °F 30.14 in WNW 1.1 mph -999.0 mph 99 % 0 in
02:29 35.1 °F 34.8 °F 30.14 in SE 1.7 mph -999.0 mph 99 % 0 in
02:45 34.9 °F 34.6 °F 30.14 in Calm   -999.0 mph 99 % 0 in
03:00 34.9 °F 34.6 °F 30.15 in WNW 1.7 mph -999.0 mph 99 % 0 in
03:15 34.7 °F 34.4 °F 30.14 in Calm   -999.0 mph 99 % 0 in
03:30 34.7 °F 34.4 °F 30.15 in Calm   -999.0 mph 99 % 0 in
03:45 34.9 °F 34.6 °F 30.15 in Calm   -999.0 mph 99 % 0 in
04:01 34.7 °F 34.4 °F 30.15 in Calm   -999.0 mph 99 % 0 in
04:16 34.3 °F 34.0 °F 30.15 in Calm   -999.0 mph 99 % 0 in
04:31 33.8 °F 33.5 °F 30.15 in Calm   -999.0 mph 99 % 0 in
04:46 33.3 °F 33.0 °F 30.15 in Calm   -999.0 mph 99 % 0 in
05:01 32.7 °F 32.4 °F 30.16 in Calm   -999.0 mph 99 % 0 in
05:17 32.4 °F 32.2 °F 30.16 in Calm   -999.0 mph 99 % 0 in
05:32 33.8 °F 33.5 °F 30.17 in Calm   -999.0 mph 99 % 0 in
05:48 34.3 °F 34.0 °F 30.17 in Calm   -999.0 mph 99 % 0 in
06:03 34.7 °F 34.4 °F 30.17 in SSW 1.7 mph -999.0 mph 99 % 0 in
06:18 34.5 °F 34.2 °F 30.18 in WSW 1.7 mph -999.0 mph 99 % 0 in
06:33 34.5 °F 34.2 °F 30.19 in West 2.7 mph -999.0 mph 99 % 0 in
06:49 34.7 °F 34.4 °F 30.19 in WNW 3.7 mph -999.0 mph 99 % 0 in
07:04 35.2 °F 34.9 °F 30.19 in South 1.7 mph -999.0 mph 99 % 0 in
07:19 36.0 °F 35.7 °F 30.21 in West 1.7 mph -999.0 mph 99 % 0 in
07:34 37.4 °F 37.1 °F 30.21 in Calm   -999.0 mph 99 % 0 in
07:49 38.5 °F 38.2 °F 30.21 in SE 2.2 mph -999.0 mph 99 % 0 in
08:05 39.7 °F 39.4 °F 30.21 in NNW 3.7 mph -999.0 mph 99 % 0 in
08:20 39.9 °F 39.6 °F 30.23 in NW 6.8 mph -999.0 mph 99 % 0 in
08:35 40.3 °F 40.0 °F 30.23 in WNW 2.7 mph -999.0 mph 99 % 0 in
08:50 40.8 °F 40.5 °F 30.24 in NNW 8.9 mph -999.0 mph 99 % 0 in
09:05 41.9 °F 41.6 °F 30.24 in South 2.7 mph -999.0 mph 99 % 0 in
09:21 42.1 °F 40.5 °F 30.25 in WNW 2.7 mph -999.0 mph 94 % 0 in
09:36 42.3 °F 40.7 °F 30.25 in NW 3.2 mph -999.0 mph 94 % 0 in
09:51 43.5 °F 41.0 °F 30.26 in NW 8.3 mph -999.0 mph 91 % 0 in
10:06 44.2 °F 41.2 °F 30.26 in NW 5.3 mph -999.0 mph 89 % 0 in
10:22 43.7 °F 40.7 °F 30.26 in NW 2.7 mph -999.0 mph 89 % 0 in
10:37 43.9 °F 41.2 °F 30.27 in SSW 1.7 mph -999.0 mph 90 % 0 in
10:52 43.9 °F 40.9 °F 30.26 in NNE 3.7 mph -999.0 mph 89 % 0 in
11:07 46.0 °F 42.3 °F 30.27 in SW 2.7 mph -999.0 mph 87 % 0 in
11:23 45.1 °F 41.2 °F 30.27 in West 2.2 mph -999.0 mph 86 % 0 in
11:38 47.5 °F 42.6 °F 30.26 in NE 1.1 mph -999.0 mph 83 % 0 in
11:54 47.7 °F 42.5 °F 30.27 in NW 5.3 mph -999.0 mph 82 % 0 in
12:09 47.1 °F 41.6 °F 30.27 in East 2.7 mph -999.0 mph 81 % 0 in
12:24 47.1 °F 41.6 °F 30.27 in South 1.1 mph -999.0 mph 81 % 0 in
12:39 46.9 °F 41.1 °F 30.27 in SSE 3.2 mph -999.0 mph 80 % 0 in
12:54 47.3 °F 40.5 °F 30.26 in WNW 4.2 mph -999.0 mph 77 % 0 in
13:10 48.2 °F 41.3 °F 30.26 in North 4.7 mph -999.0 mph 77 % 0 in
13:25 46.9 °F 41.1 °F 30.25 in NW 2.7 mph -999.0 mph 80 % 0 in
13:40 47.7 °F 39.8 °F 30.25 in NW 1.7 mph -999.0 mph 74 % 0 in
13:56 47.7 °F 40.8 °F 30.25 in Calm   -999.0 mph 77 % 0 in
14:11 48.6 °F 38.5 °F 30.25 in NNW 2.2 mph -999.0 mph 68 % 0 in
14:26 48.7 °F 37.1 °F 30.25 in SSE 1.7 mph -999.0 mph 64 % 0 in
14:42 48.4 °F 35.2 °F 30.26 in West 2.7 mph -999.0 mph 60 % 0 in
14:57 48.0 °F 35.6 °F 30.26 in SSW 8.3 mph -999.0 mph 62 % 0 in
15:12 48.2 °F 36.2 °F 30.26 in SSE 3.2 mph -999.0 mph 63 % 0 in
15:27 47.1 °F 36.3 °F 30.26 in SSE 2.7 mph -999.0 mph 66 % 0 in
15:42 46.2 °F 35.8 °F 30.27 in West 1.7 mph -999.0 mph 67 % 0 in
15:58 45.5 °F 35.6 °F 30.27 in NW 2.7 mph -999.0 mph 68 % 0 in
16:13 44.8 °F 34.1 °F 30.27 in West 2.7 mph -999.0 mph 66 % 0 in
16:28 44.1 °F 34.2 °F 30.27 in NW 2.2 mph -999.0 mph 68 % 0 in
16:43 43.7 °F 32.3 °F 30.27 in NNW 3.7 mph -999.0 mph 64 % 0 in
16:59 43.5 °F 31.7 °F 30.27 in NNW 3.2 mph -999.0 mph 63 % 0 in
17:14 42.6 °F 28.4 °F 30.27 in NW 2.2 mph -999.0 mph 57 % 0 in
17:29 41.9 °F 25.1 °F 30.28 in NNW 2.2 mph -999.0 mph 51 % 0 in
17:45 41.2 °F 27.5 °F 30.29 in WNW 2.7 mph -999.0 mph 58 % 0 in
18:01 40.8 °F 25.4 °F 30.29 in NW 4.2 mph -999.0 mph 54 % 0 in
18:16 40.8 °F 25.0 °F 30.29 in WNW 2.7 mph -999.0 mph 53 % 0 in
18:31 41.0 °F 23.8 °F 30.30 in WNW 1.7 mph -999.0 mph 50 % 0 in
18:46 41.0 °F 24.7 °F 30.30 in NW 2.7 mph -999.0 mph 52 % 0 in
19:02 41.2 °F 27.1 °F 30.31 in WNW 3.2 mph -999.0 mph 57 % 0 in
19:17 41.2 °F 27.5 °F 30.31 in WNW 2.7 mph -999.0 mph 58 % 0 in
19:32 41.4 °F 27.3 °F 30.31 in WSW 2.7 mph -999.0 mph 57 % 0 in
19:48 41.2 °F 26.7 °F 30.31 in WSW 4.2 mph -999.0 mph 56 % 0 in
20:03 40.6 °F 26.6 °F 30.31 in West 1.1 mph -999.0 mph 57 % 0 in
20:18 40.3 °F 27.1 °F 30.31 in West 1.7 mph -999.0 mph 59 % 0 in
20:33 40.5 °F 28.5 °F 30.32 in WSW 1.7 mph -999.0 mph 62 % 0 in
20:49 40.3 °F 30.6 °F 30.32 in WNW 3.7 mph -999.0 mph 68 % 0 in
21:04 40.6 °F 33.3 °F 30.32 in South 2.7 mph -999.0 mph 75 % 0 in
21:19 41.9 °F 33.2 °F 30.33 in SSW 1.7 mph -999.0 mph 71 % 0 in
21:34 41.5 °F 33.5 °F 30.32 in SSE 2.2 mph -999.0 mph 73 % 0 in
21:50 41.9 °F 34.9 °F 30.33 in South 3.2 mph -999.0 mph 76 % 0 in
22:05 42.3 °F 35.3 °F 30.33 in SSE 2.7 mph -999.0 mph 76 % 0 in
22:20 42.3 °F 34.3 °F 30.33 in Calm   -999.0 mph 73 % 0 in
22:35 41.9 °F 34.2 °F 30.33 in SSW 1.7 mph -999.0 mph 74 % 0 in
22:50 41.9 °F 33.9 °F 30.33 in South 3.7 mph -999.0 mph 73 % 0 in
23:06 41.9 °F 32.5 °F 30.33 in SSE 1.7 mph -999.0 mph 69 % 0 in
23:21 41.4 °F 32.0 °F 30.33 in Calm   -999.0 mph 69 % 0 in
23:36 41.2 °F 32.9 °F 30.33 in NW 2.2 mph -999.0 mph 72 % 0 in
23:51 40.6 °F 30.1 °F 30.33 in SSE 1.1 mph -999.0 mph 66 % 0 in
Big Bear CA Weather
Compliments of Weather Underground - 1.5 mb